Tokeneke, Connecticut
Current Conditions -  °F | °C
As of 2:56 PM on Friday 24 Oct 2014 (Local Time) from KHPN Reporting Station
Broken Clouds Broken Clouds  
Wind Chill: 56°   Ceiling: 3500
Heat Index: 56°   Visibility: 10mi
Dew Point: 44°   Wind: 12mph
Humidity: 64%   Direction: 330°NNW
Pressure: 29.77"   Gusts: NA
Location:  41.0804°N, 73.4823°W
Report Text: KHPN 241856Z 33010KT 10SM FEW025 BKN035 13/07 A2977 RMK AO2 SLP081 T01330067
Loading
Personal Weather Stations






























Interactive Weather Map
Tropical Storm Tracking
New forecast layout! Learn more

10-Day Weather Forecast

Advertisements
Track Severe Weather on mobile